Forest, OH (45843)

1:35 PM EST on December 05, 2016 (GMT -0500)
KOHARLIN2 | | Change Station

Elev 850 ft 40.87 °N, 83.66 °W | Updated 14 seconds ago

Overcast
Overcast
36.4 °F
Feels Like 36 °F
N
0.0
Wind Variable Wind from SW
Gusts 5.0 mph

Today
High -- | Low -- °F
--% Chance of Precip.
Yesterday
High -- | Low -- °F
Precip. -- in
Pressure 30.11 in
Visibility 10.0 miles
Clouds Overcast 2000 ft
Windchill 36 °F
Dew Point 30 °F
Humidity 79%
Rainfall 0.00 in
Snow Depth Not available.
7:43 AM 5:06 PM
Waxing Crescent, 33% visible
METAR KFDY 051753Z AUTO 23010KT 10SM OVC020 03/M01 A3009 RMK AO2 SLP194 T00281011 10033 20017 51003
Pressure 30.11 in
Visibility 10.0 miles
Clouds Overcast 2000 ft
Windchill 36 °F
Dew Point 30 °F
Humidity 79%
Rainfall 0.00 in
Snow Depth Not available.
7:43 AM 5:06 PM
Waxing Crescent, 33% visible
METAR KFDY 051753Z AUTO 23010KT 10SM OVC020 03/M01 A3009 RMK AO2 SLP194 T00281011 10033 20017 51003

10-Day Weather Forecast

Almanac

Astronomy

Dec. 05, 2016 Rise Set
Actual Time
Civil Twilight
Nautical Twilight
Astronomical Twilight
Moon
Length of Visible Light
Length of Day
Tomorrow will be .
, % of the Moon is Illuminated

Today's Extremes

State Highs State Lows

Community

WunderPhotos

Upload Photos

1,955,849 photos uploaded!

WunderBlog® & News

Nearby

Air Quality

  Air Quality AQ Index Pollutant
Not available.

Snow Depth

Station Depth Elevation

Earthquake Activity

City Distance Mag. Time & Date
Minimum magnitude displayed is 2.5.

Coastal Water Temperatures

Place Temperature

Stations

Nearby Weather Stations

Station Location Temp. Windchill Dew Point Humidity Wind Precip. Elev Updated Type
                   

Watches & Warnings

There are currently no watches in effect.